Time;durP1;ratioP1;P1;durP2;ratioP2;P2;SDS_P1;SDS_P2;PMS_P1;PMS_P2;Temp;Humidity;BMP_temperature;BMP_pressure;BME280_temperature;BME280_humidity;BME280_pressure;Samples;Min_cycle;Max_cycle;Signal;HPM_P1;HPM_P2
2022/05/27 00:01:32;;;;;;;9.13;0.98;;;16.30;99.90;;;;;;5016545;28;20211;-77
2022/05/27 00:04:00;;;;;;;1.25;0.90;;;16.10;99.90;;;;;;5033682;28;20163;-78
2022/05/27 00:06:29;;;;;;;2.47;1.38;;;16.10;99.90;;;;;;5033400;28;20168;-77
2022/05/27 00:08:55;;;;;;;4.88;1.17;;;16.20;99.90;;;;;;5033413;28;20206;-78
2022/05/27 00:11:22;;;;;;;2.65;1.30;;;16.20;99.90;;;;;;5033263;28;20660;-83
2022/05/27 00:13:49;;;;;;;4.57;1.15;;;16.20;99.90;;;;;;5033079;28;20175;-78
2022/05/27 00:16:15;;;;;;;6.18;1.23;;;16.30;99.90;;;;;;5032728;28;20180;-77
2022/05/27 00:18:41;;;;;;;4.55;1.00;;;16.40;99.90;;;;;;5033241;28;20188;-77
2022/05/27 00:21:07;;;;;;;3.78;0.98;;;16.40;99.90;;;;;;5033296;28;20168;-78
2022/05/27 00:23:34;;;;;;;4.38;1.15;;;16.50;99.90;;;;;;5033128;28;20218;-77
2022/05/27 00:25:59;;;;;;;3.83;1.05;;;16.50;99.90;;;;;;5033170;28;20174;-77
2022/05/27 00:28:25;;;;;;;11.88;2.03;;;16.50;99.90;;;;;;5033151;28;20671;-77
2022/05/27 00:30:52;;;;;;;4.22;1.58;;;16.50;99.90;;;;;;5033424;28;20207;-78
2022/05/27 00:33:18;;;;;;;5.40;1.40;;;16.50;99.90;;;;;;5033323;28;20198;-78
2022/05/27 00:35:44;;;;;;;2.95;1.10;;;16.40;99.90;;;;;;5033089;28;20160;-78
2022/05/27 00:38:10;;;;;;;4.80;1.88;;;16.30;99.90;;;;;;5033271;28;20203;-77
2022/05/27 00:40:41;;;;;;;3.35;1.40;;;16.30;99.90;;;;;;5032909;28;20160;-77
2022/05/27 00:43:07;;;;;;;3.28;1.30;;;16.20;99.90;;;;;;5033415;28;20636;-78
2022/05/27 00:45:35;;;;;;;11.68;1.55;;;16.20;99.90;;;;;;5032944;28;20191;-78
2022/05/27 00:48:06;;;;;;;5.45;1.52;;;16.20;99.90;;;;;;5032666;28;20195;-77
2022/05/27 00:50:36;;;;;;;4.65;1.00;;;16.30;99.90;;;;;;5032732;28;20511;-77
2022/05/27 00:53:03;;;;;;;5.53;1.80;;;16.20;99.90;;;;;;5032590;28;20175;-77
2022/05/27 00:55:34;;;;;;;9.70;1.20;;;16.40;99.90;;;;;;5032910;28;20230;-78
2022/05/27 00:58:17;;;;;;;9.30;1.40;;;16.40;99.90;;;;;;5033151;28;20290;-78
2022/05/27 01:00:43;;;;;;;5.03;1.70;;;16.30;99.90;;;;;;5032911;28;20167;-78
2022/05/27 01:03:13;;;;;;;5.55;1.33;;;16.20;99.90;;;;;;5032734;28;20506;-91
2022/05/27 01:05:41;;;;;;;6.25;1.80;;;16.10;99.90;;;;;;5032889;28;20580;-78
2022/05/27 01:08:08;;;;;;;3.45;1.58;;;16.20;99.90;;;;;;5032215;28;20241;-77
2022/05/27 01:10:50;;;;;;;6.93;1.38;;;16.10;99.90;;;;;;5032580;28;20537;-77
2022/05/27 01:13:21;;;;;;;3.60;1.30;;;16.20;99.90;;;;;;5032490;28;20597;-77
2022/05/27 01:15:59;;;;;;;3.75;1.60;;;16.20;99.90;;;;;;5033004;28;20167;-78
2022/05/27 01:21:52;;;;;;;3.97;2.05;;;16.30;99.90;;;;;;5032856;28;20210;-77
2022/05/27 01:24:41;;;;;;;4.82;1.42;;;16.30;99.90;;;;;;5025042;28;20255;-77
2022/05/27 01:27:34;;;;;;;4.22;1.30;;;16.20;99.90;;;;;;5034856;28;20179;-77
2022/05/27 01:30:19;;;;;;;9.35;1.65;;;16.10;99.90;;;;;;5036973;28;20160;-78
2022/05/27 01:33:07;;;;;;;13.30;1.80;;;16.20;99.90;;;;;;5036750;28;20683;-78
2022/05/27 01:36:09;;;;;;;7.13;1.83;;;16.20;99.90;;;;;;5039732;28;20171;-78
2022/05/27 01:38:51;;;;;;;3.47;1.50;;;16.20;99.90;;;;;;5012779;28;20210;-78
2022/05/27 01:41:36;;;;;;;11.82;2.15;;;16.10;99.90;;;;;;5046419;28;20160;-79
2022/05/27 01:44:27;;;;;;;11.18;1.98;;;16.00;99.90;;;;;;5039049;28;20640;-78
2022/05/27 01:46:54;;;;;;;12.77;1.60;;;15.90;99.90;;;;;;5036386;28;20175;-78
2022/05/27 01:49:23;;;;;;;10.20;1.83;;;15.80;99.90;;;;;;5036592;28;20641;-82
2022/05/27 01:51:53;;;;;;;7.78;1.77;;;15.80;99.90;;;;;;5018802;28;20215;-78
2022/05/27 01:54:26;;;;;;;13.43;1.65;;;15.80;99.90;;;;;;5036421;28;20199;-78
2022/05/27 01:57:01;;;;;;;12.75;2.55;;;15.90;99.90;;;;;;5036114;28;20171;-78
2022/05/27 01:59:58;;;;;;;5.82;2.22;;;15.90;99.90;;;;;;5036033;28;20171;-79
2022/05/27 02:02:27;;;;;;;9.35;2.63;;;16.00;99.90;;;;;;5036012;28;20182;-79
2022/05/27 02:05:01;;;;;;;8.05;1.55;;;15.90;99.90;;;;;;5036332;28;20238;-89
2022/05/27 02:07:33;;;;;;;4.07;1.55;;;15.90;99.90;;;;;;5036186;28;20187;-79
2022/05/27 02:10:03;;;;;;;13.13;1.83;;;15.90;99.90;;;;;;5036059;28;21215;-78
2022/05/27 02:12:32;;;;;;;5.88;1.70;;;16.00;99.90;;;;;;5035578;28;20207;-79
2022/05/27 02:15:07;;;;;;;8.82;1.85;;;16.10;99.90;;;;;;5035930;28;20491;-78
2022/05/27 02:17:48;;;;;;;7.13;2.20;;;16.10;99.90;;;;;;5035415;28;20183;-79
2022/05/27 02:20:22;;;;;;;7.82;2.53;;;15.90;99.90;;;;;;5035780;28;20171;-79
2022/05/27 02:22:54;;;;;;;10.00;2.50;;;15.80;99.90;;;;;;5035494;28;20210;-79
2022/05/27 02:25:28;;;;;;;7.22;1.95;;;15.80;99.90;;;;;;5035737;28;20740;-78
2022/05/27 02:28:15;;;;;;;7.63;2.45;;;15.90;99.90;;;;;;5035501;28;20187;-78
2022/05/27 02:30:45;;;;;;;7.07;1.80;;;16.10;99.90;;;;;;5035563;28;20172;-79
2022/05/27 02:36:18;;;;;;;8.43;1.85;;;16.00;99.90;;;;;;5035644;28;20171;-79
2022/05/27 02:38:45;;;;;;;9.57;2.38;;;16.00;99.90;;;;;;5034295;28;20652;-78
2022/05/27 02:41:13;;;;;;;9.07;2.30;;;16.00;99.90;;;;;;5035072;28;20339;-87
2022/05/27 02:44:03;;;;;;;7.63;2.30;;;16.00;99.90;;;;;;5035376;28;20247;-78
2022/05/27 02:46:53;;;;;;;14.38;3.15;;;15.80;99.90;;;;;;5035461;28;20171;-79
2022/05/27 02:49:24;;;;;;;10.38;1.85;;;15.80;99.90;;;;;;5035313;28;20214;-78
2022/05/27 02:51:54;;;;;;;11.98;2.65;;;15.70;99.90;;;;;;5035355;28;20207;-78
2022/05/27 02:54:43;;;;;;;7.57;2.50;;;15.70;99.90;;;;;;5035405;28;20524;-79
2022/05/27 02:57:30;;;;;;;9.48;2.28;;;15.80;99.90;;;;;;5035678;28;20168;-78
2022/05/27 02:59:57;;;;;;;14.00;2.30;;;15.90;99.90;;;;;;5035133;28;20183;-78
2022/05/27 03:02:22;;;;;;;9.48;2.30;;;16.10;99.90;;;;;;5034817;28;20656;-79
2022/05/27 03:04:55;;;;;;;5.85;1.95;;;16.10;99.90;;;;;;5034795;28;20255;-79
2022/05/27 03:07:58;;;;;;;8.10;2.05;;;16.10;99.90;;;;;;5035004;28;20187;-79
2022/05/27 03:10:56;;;;;;;8.38;2.00;;;16.10;99.90;;;;;;5034456;28;20167;-78
2022/05/27 03:13:28;;;;;;;11.30;2.10;;;16.10;99.90;;;;;;5034525;28;20191;-78
2022/05/27 03:16:21;;;;;;;12.32;2.60;;;16.20;99.90;;;;;;5034005;28;20172;-79
2022/05/27 03:19:16;;;;;;;5.68;1.88;;;16.20;99.90;;;;;;5034016;28;20188;-80
2022/05/27 03:22:11;;;;;;;5.13;1.95;;;16.20;99.90;;;;;;4964114;28;20213;-79
2022/05/27 03:24:49;;;;;;;5.25;2.00;;;16.30;99.90;;;;;;5034631;28;20259;-79
2022/05/27 03:27:39;;;;;;;8.10;2.08;;;16.30;99.90;;;;;;5034300;28;20195;-79
2022/05/27 03:30:12;;;;;;;10.95;3.30;;;16.20;99.90;;;;;;5034448;28;20172;-87
2022/05/27 03:32:50;;;;;;;13.32;2.65;;;16.10;99.90;;;;;;5034520;28;20556;-79
2022/05/27 03:35:28;;;;;;;9.50;2.75;;;15.90;99.90;;;;;;5034450;28;20172;-79
2022/05/27 03:38:16;;;;;;;9.02;2.22;;;15.90;99.90;;;;;;5034342;28;20603;-79
2022/05/27 03:40:48;;;;;;;10.75;2.88;;;15.80;99.90;;;;;;5034603;28;20218;-79
2022/05/27 03:43:14;;;;;;;8.15;2.25;;;15.80;99.90;;;;;;5034217;28;20172;-79
2022/05/27 03:45:51;;;;;;;12.63;2.72;;;16.00;99.90;;;;;;5034373;28;20266;-78
2022/05/27 03:48:18;;;;;;;8.63;2.28;;;16.10;99.90;;;;;;5034175;28;20192;-79
2022/05/27 03:50:47;;;;;;;12.43;3.22;;;16.10;99.90;;;;;;5034127;28;20506;-79
2022/05/27 03:53:13;;;;;;;12.75;2.70;;;16.10;99.90;;;;;;5034535;28;20191;-79
2022/05/27 03:55:44;;;;;;;7.88;2.70;;;16.10;99.90;;;;;;5034278;28;20620;-78
2022/05/27 03:58:14;;;;;;;12.40;2.97;;;16.20;99.90;;;;;;5033988;28;20203;-79
2022/05/27 04:00:41;;;;;;;17.90;2.67;;;16.20;99.90;;;;;;5033872;28;20172;-78
2022/05/27 04:03:11;;;;;;;8.20;2.65;;;16.30;99.90;;;;;;5033922;28;20736;-78
2022/05/27 04:05:38;;;;;;;19.35;2.85;;;16.30;99.90;;;;;;5033884;28;20167;-78
2022/05/27 04:08:04;;;;;;;15.38;3.38;;;16.20;99.90;;;;;;5033656;28;20184;-78
2022/05/27 04:10:30;;;;;;;10.13;2.83;;;16.20;99.90;;;;;;5034235;28;20171;-78
2022/05/27 04:12:56;;;;;;;10.93;2.78;;;16.10;99.90;;;;;;5033673;28;20203;-78
2022/05/27 04:15:21;;;;;;;13.57;3.35;;;16.00;99.90;;;;;;5015997;28;20175;-78
2022/05/27 04:17:48;;;;;;;9.75;3.28;;;16.10;99.90;;;;;;5015887;28;20179;-79
2022/05/27 04:20:17;;;;;;;10.68;3.00;;;16.20;99.90;;;;;;5033503;28;20172;-78
2022/05/27 04:22:42;;;;;;;9.75;2.70;;;16.30;99.90;;;;;;5033456;28;20168;-78
2022/05/27 04:25:09;;;;;;;15.45;3.40;;;16.20;99.90;;;;;;5035386;28;20171;-78
2022/05/27 04:27:36;;;;;;;8.52;3.13;;;16.10;99.90;;;;;;5033852;28;20184;-77
2022/05/27 04:30:05;;;;;;;10.98;3.47;;;16.10;99.90;;;;;;5033793;28;20179;-78
2022/05/27 04:32:30;;;;;;;12.15;3.30;;;15.90;99.90;;;;;;5033190;28;20215;-78
2022/05/27 04:34:56;;;;;;;13.32;3.70;;;15.80;99.90;;;;;;5015578;28;20164;-77
2022/05/27 04:37:23;;;;;;;9.20;3.95;;;15.80;99.90;;;;;;5033360;28;20283;-78
2022/05/27 04:39:49;;;;;;;15.00;4.10;;;15.80;99.90;;;;;;5032924;28;20758;-78
2022/05/27 04:42:14;;;;;;;14.18;4.05;;;15.80;99.90;;;;;;5032763;28;20200;-77
2022/05/27 04:44:41;;;;;;;12.57;4.20;;;15.70;99.90;;;;;;5032851;28;20202;-78
2022/05/27 04:47:08;;;;;;;15.00;4.45;;;15.70;99.90;;;;;;5032826;28;20178;-79
2022/05/27 04:52:22;;;;;;;12.52;4.88;;;15.80;99.90;;;;;;5033229;28;20237;-78
2022/05/27 04:54:49;;;;;;;19.63;4.57;;;15.80;99.90;;;;;;5032516;28;20247;-78
2022/05/27 04:57:19;;;;;;;17.58;4.95;;;15.60;99.90;;;;;;5032427;28;20192;-77
2022/05/27 04:59:46;;;;;;;16.45;5.18;;;15.70;99.90;;;;;;5015033;28;20168;-78
2022/05/27 05:02:13;;;;;;;13.48;5.13;;;15.80;99.90;;;;;;5032473;28;20172;-79
2022/05/27 05:04:39;;;;;;;13.32;4.20;;;15.70;99.90;;;;;;5032853;28;20248;-79
2022/05/27 05:07:08;;;;;;;18.48;6.05;;;15.60;99.90;;;;;;5032598;28;20251;-81
2022/05/27 05:09:35;;;;;;;20.63;5.65;;;15.70;99.90;;;;;;5032393;28;20171;-81
2022/05/27 05:12:00;;;;;;;9.18;5.22;;;15.80;99.90;;;;;;5032244;28;20199;-78
2022/05/27 05:14:26;;;;;;;12.50;5.00;;;15.80;99.90;;;;;;5032400;28;20176;-78
2022/05/27 05:16:52;;;;;;;17.95;4.50;;;15.90;99.90;;;;;;5032707;28;20636;-79
2022/05/27 05:19:17;;;;;;;27.23;5.30;;;15.80;99.90;;;;;;5032392;28;20262;-78
2022/05/27 05:21:43;;;;;;;19.38;5.90;;;15.70;99.90;;;;;;5033043;28;20528;-78
2022/05/27 05:24:09;;;;;;;8.40;4.60;;;15.60;99.90;;;;;;5015139;28;20179;-79
2022/05/27 05:26:34;;;;;;;12.73;3.97;;;15.60;99.90;;;;;;5032887;28;20184;-77
2022/05/27 05:29:00;;;;;;;14.05;4.75;;;15.70;99.90;;;;;;5032606;28;20190;-78
2022/05/27 05:31:26;;;;;;;13.57;4.95;;;15.70;99.90;;;;;;5032189;28;20710;-79
2022/05/27 05:33:58;;;;;;;5.15;4.28;;;15.60;99.90;;;;;;5032179;28;20656;-78
2022/05/27 05:36:24;;;;;;;12.82;4.40;;;15.80;99.90;;;;;;5032531;28;20164;-79
2022/05/27 05:38:50;;;;;;;8.65;4.40;;;15.70;99.90;;;;;;5032224;28;20187;-79
2022/05/27 05:41:26;;;;;;;4.90;4.03;;;15.60;99.90;;;;;;5032805;28;20171;-80
2022/05/27 05:43:52;;;;;;;6.95;3.92;;;15.60;99.90;;;;;;5034761;28;20190;-78
2022/05/27 05:46:18;;;;;;;9.18;4.60;;;15.60;99.90;;;;;;5033578;28;20306;-79
2022/05/27 05:48:43;;;;;;;6.45;4.55;;;15.70;99.90;;;;;;5032102;28;20696;-78
2022/05/27 05:51:09;;;;;;;7.85;5.05;;;15.80;99.90;;;;;;5031992;28;20235;-78
2022/05/27 05:53:34;;;;;;;9.30;5.13;;;15.70;99.90;;;;;;5033231;28;20176;-84
2022/05/27 05:56:00;;;;;;;14.45;5.15;;;15.80;99.90;;;;;;5033120;28;20171;-78
2022/05/27 05:58:26;;;;;;;11.80;4.97;;;15.80;99.90;;;;;;5036202;28;20207;-81
2022/05/27 06:00:51;;;;;;;10.30;5.38;;;15.90;99.90;;;;;;5046355;28;20169;-81
2022/05/27 06:03:17;;;;;;;9.75;5.63;;;16.00;99.90;;;;;;5040164;28;20168;-78
2022/05/27 06:05:43;;;;;;;18.80;6.18;;;15.80;99.90;;;;;;5041008;28;20195;-78
2022/05/27 06:08:10;;;;;;;14.65;7.13;;;15.80;99.90;;;;;;5037529;28;20184;-79
2022/05/27 06:10:36;;;;;;;28.50;6.93;;;15.70;99.90;;;;;;5015094;28;20619;-80
2022/05/27 06:13:02;;;;;;;27.73;6.63;;;15.90;99.90;;;;;;5034527;28;20264;-79
2022/05/27 06:15:29;;;;;;;12.25;6.53;;;16.00;99.90;;;;;;5036868;28;20196;-80
2022/05/27 06:17:55;;;;;;;10.05;6.38;;;16.00;99.90;;;;;;5035732;28;20204;-78
2022/05/27 06:20:21;;;;;;;15.35;6.90;;;16.10;99.90;;;;;;5036617;28;20668;-79
2022/05/27 06:22:49;;;;;;;13.88;7.20;;;16.20;99.90;;;;;;5037323;28;20176;-83
2022/05/27 06:25:14;;;;;;;10.43;7.72;;;16.30;99.90;;;;;;5037448;28;20171;-78
2022/05/27 06:27:41;;;;;;;13.13;7.35;;;16.40;99.90;;;;;;5035535;28;20187;-78
2022/05/27 06:35:36;;;;;;;22.13;7.20;;;17.20;99.90;;;;;;5036433;28;20221;-77
2022/05/27 06:38:01;;;;;;;14.73;7.72;;;17.60;99.90;;;;;;5018442;28;20196;-78
2022/05/27 06:40:27;;;;;;;10.93;6.22;;;17.90;99.90;;;;;;5035747;28;20175;-77
2022/05/27 06:42:52;;;;;;;18.98;6.85;;;17.90;99.90;;;;;;5035995;28;20175;-77
2022/05/27 06:45:18;;;;;;;13.02;7.28;;;18.00;99.90;;;;;;5035458;28;20171;-76
2022/05/27 06:47:44;;;;;;;15.20;6.40;;;18.20;99.90;;;;;;5034717;28;20263;-79
2022/05/27 06:50:10;;;;;;;13.55;6.85;;;18.50;99.90;;;;;;5036092;28;20249;-92
2022/05/27 06:52:37;;;;;;;14.90;7.15;;;18.80;99.90;;;;;;5041804;28;20211;-76
2022/05/27 06:55:04;;;;;;;13.27;6.20;;;19.00;99.90;;;;;;5039116;28;20160;-77
2022/05/27 06:57:29;;;;;;;15.63;7.28;;;18.60;99.90;;;;;;5035155;28;20195;-79
2022/05/27 06:59:55;;;;;;;14.93;7.07;;;18.60;99.90;;;;;;5034724;28;20561;-79
2022/05/27 07:02:22;;;;;;;19.27;7.00;;;18.60;99.90;;;;;;5035116;28;20160;-78
2022/05/27 07:04:48;;;;;;;11.00;7.38;;;18.30;99.90;;;;;;5034787;28;20684;-80
2022/05/27 07:07:14;;;;;;;14.05;7.45;;;18.10;99.90;;;;;;5034916;28;20291;-78
2022/05/27 07:09:39;;;;;;;11.82;6.07;;;18.10;99.90;;;;;;5035183;28;20617;-78
2022/05/27 07:12:08;;;;;;;17.17;6.97;;;18.50;99.90;;;;;;5034716;28;20204;-87
2022/05/27 07:14:34;;;;;;;18.23;6.78;;;19.10;99.90;;;;;;5034477;28;20168;-78
2022/05/27 07:17:00;;;;;;;12.25;5.30;;;19.90;99.90;;;;;;5038975;28;20181;-80
2022/05/27 07:19:26;;;;;;;14.85;5.88;;;20.70;99.90;;;;;;5034265;28;20176;-79
2022/05/27 07:21:55;;;;;;;14.93;5.20;;;21.10;99.90;;;;;;5034544;28;20175;-77
2022/05/27 07:24:22;;;;;;;10.57;4.20;;;21.20;99.90;;;;;;5033782;28;20164;-78
2022/05/27 07:26:48;;;;;;;9.60;4.53;;;20.50;99.90;;;;;;5033634;28;20198;-78
2022/05/27 07:29:14;;;;;;;10.50;3.63;;;20.00;99.90;;;;;;5035536;28;20708;-77
2022/05/27 07:31:42;;;;;;;13.45;5.85;;;20.70;99.90;;;;;;5033815;28;20355;-78
2022/05/27 07:34:09;;;;;;;9.32;3.40;;;20.60;99.90;;;;;;5016602;28;20203;-81
2022/05/27 07:36:35;;;;;;;6.88;3.00;;;21.10;99.90;;;;;;5019034;28;20171;-81
2022/05/27 07:39:02;;;;;;;8.05;2.60;;;21.20;99.90;;;;;;5016155;28;20196;-82
2022/05/27 07:41:28;;;;;;;2.63;1.45;;;21.60;99.90;;;;;;5033391;28;20172;-86
2022/05/27 07:43:55;;;;;;;5.07;2.00;;;21.40;99.90;;;;;;5033303;28;20183;-81
2022/05/27 07:46:22;;;;;;;3.80;1.95;;;21.30;99.90;;;;;;5033554;28;20175;-81
2022/05/27 07:48:48;;;;;;;9.80;2.80;;;20.70;99.90;;;;;;5032551;28;20218;-81
2022/05/27 07:51:14;;;;;;;4.50;2.33;;;20.00;99.90;;;;;;5034974;28;20196;-82
2022/05/27 07:53:40;;;;;;;6.85;2.20;;;20.10;99.90;;;;;;5033914;28;20168;-87
2022/05/27 07:56:07;;;;;;;6.90;2.25;;;19.90;99.90;;;;;;5037127;28;20179;-83
2022/05/27 07:58:34;;;;;;;5.55;2.25;;;19.90;99.90;;;;;;5038025;28;20675;-89
2022/05/27 08:01:00;;;;;;;4.93;2.03;;;20.10;99.90;;;;;;5033856;28;20168;-80
2022/05/27 08:03:26;;;;;;;7.60;1.80;;;20.10;99.90;;;;;;5033762;28;20179;-80
2022/05/27 08:05:52;;;;;;;5.95;2.35;;;19.60;99.90;;;;;;5015649;28;20175;-80
2022/05/27 08:08:19;;;;;;;7.38;2.58;;;19.40;99.90;;;;;;5015831;28;20302;-82
2022/05/27 08:10:45;;;;;;;6.43;1.98;;;19.20;99.90;;;;;;5016768;28;20192;-91
2022/05/27 08:13:11;;;;;;;7.05;2.08;;;19.10;99.90;;;;;;5016471;28;20186;-80
2022/05/27 08:15:37;;;;;;;6.43;1.75;;;19.10;99.90;;;;;;5022872;28;20168;-78
2022/05/27 08:18:03;;;;;;;5.07;1.40;;;19.30;99.90;;;;;;5033551;28;20192;-91
2022/05/27 08:20:33;;;;;;;3.25;1.60;;;19.20;99.90;;;;;;5029451;28;20172;-83
2022/05/27 08:23:00;;;;;;;9.23;1.98;;;19.40;99.90;;;;;;5016422;28;20728;-79
2022/05/27 08:25:27;;;;;;;3.63;1.50;;;19.10;99.90;;;;;;5015821;28;20212;-79
2022/05/27 08:27:54;;;;;;;6.03;1.50;;;19.00;99.90;;;;;;5012983;28;20247;-84
2022/05/27 08:30:28;;;;;;;4.28;1.58;;;18.80;99.90;;;;;;5020780;28;20477;-79
2022/05/27 08:32:54;;;;;;;7.85;1.70;;;18.60;99.90;;;;;;5014935;28;20218;-77
2022/05/27 08:38:10;;;;;;;5.38;1.20;;;19.20;99.90;;;;;;5032962;28;20866;-79
2022/05/27 08:41:14;;;;;;;2.50;1.27;;;19.40;99.90;;;;;;4996870;28;20183;-81
2022/05/27 08:44:07;;;;;;;4.30;0.98;;;19.30;99.90;;;;;;5016629;28;20172;-77
2022/05/27 08:46:41;;;;;;;3.63;1.05;;;19.60;99.90;;;;;;5013319;28;20588;-78
2022/05/27 08:49:11;;;;;;;8.48;1.63;;;19.80;99.90;;;;;;5012849;28;20189;-78
2022/05/27 08:51:52;;;;;;;4.88;1.15;;;19.80;99.90;;;;;;5025091;28;20203;-77
2022/05/27 08:54:28;;;;;;;6.30;1.20;;;19.70;99.90;;;;;;5026226;28;20648;-77
2022/05/27 08:59:43;;;;;;;1.17;1.08;;;19.80;99.90;;;;;;5052453;28;20210;-76
2022/05/27 09:02:36;;;;;;;12.68;1.38;;;19.70;99.90;;;;;;5056020;28;20174;-76
2022/05/27 09:05:16;;;;;;;2.90;1.00;;;19.90;99.90;;;;;;5061400;28;20248;-82
2022/05/27 09:08:07;;;;;;;2.83;1.25;;;19.90;99.90;;;;;;5055768;28;20683;-81
2022/05/27 09:10:51;;;;;;;4.07;1.08;;;20.00;99.90;;;;;;5024628;28;20167;-86
2022/05/27 09:13:16;;;;;;;6.32;1.20;;;20.10;99.90;;;;;;5046493;28;20214;-85
2022/05/27 09:16:31;;;;;;;2.95;0.85;;;20.20;99.90;;;;;;5037693;28;20173;-87
2022/05/27 09:19:21;;;;;;;2.40;1.00;;;20.30;99.90;;;;;;4997293;28;20242;-84
2022/05/27 09:22:14;;;;;;;2.83;1.10;;;20.50;99.90;;;;;;5044907;28;20176;-81
2022/05/27 09:25:19;;;;;;;1.92;1.10;;;20.60;99.90;;;;;;5023961;28;20181;-78
2022/05/27 09:27:57;;;;;;;1.80;1.02;;;20.80;99.90;;;;;;5053932;28;20204;-79
2022/05/27 09:30:23;;;;;;;1.80;1.02;;;20.50;99.90;;;;;;5051963;28;20174;-77
2022/05/27 09:33:02;;;;;;;4.75;1.17;;;20.20;99.90;;;;;;5052776;28;20211;-83
2022/05/27 09:35:43;;;;;;;2.00;1.00;;;19.70;99.90;;;;;;5043113;28;20183;-79
2022/05/27 09:38:21;;;;;;;1.85;1.27;;;19.50;99.90;;;;;;5047248;28;20190;-78
2022/05/27 09:40:53;;;;;;;7.18;1.40;;;19.40;99.90;;;;;;5033595;28;20255;-82
2022/05/27 09:43:43;;;;;;;1.80;0.82;;;19.40;99.90;;;;;;5040450;28;20246;-83
2022/05/27 09:46:14;;;;;;;7.25;1.20;;;19.90;99.90;;;;;;5051607;28;20176;-78
2022/05/27 09:48:40;;;;;;;8.25;1.30;;;20.10;99.90;;;;;;5039205;28;20297;-85
2022/05/27 09:51:12;;;;;;;2.33;1.20;;;20.30;99.90;;;;;;5057501;28;20217;-79
2022/05/27 09:53:48;;;;;;;11.55;1.63;;;20.70;99.90;;;;;;5057254;28;20167;-91
2022/05/27 09:56:15;;;;;;;2.72;1.17;;;20.90;99.90;;;;;;5039658;28;20173;-83
2022/05/27 09:58:44;;;;;;;3.33;1.88;;;20.50;99.90;;;;;;5055701;28;20198;-83
2022/05/27 10:01:28;;;;;;;5.78;1.10;;;20.40;99.90;;;;;;5036691;28;20620;-87
2022/05/27 10:04:00;;;;;;;1.65;1.23;;;20.50;99.90;;;;;;5039051;28;20187;-89
2022/05/27 10:06:28;;;;;;;2.53;1.40;;;20.50;99.90;;;;;;5040830;28;20172;-85
2022/05/27 10:08:57;;;;;;;4.85;1.67;;;20.20;99.90;;;;;;5021009;28;20200;-77
2022/05/27 10:11:24;;;;;;;2.88;1.55;;;20.20;99.90;;;;;;5036998;28;20227;-84
2022/05/27 10:14:10;;;;;;;2.30;1.40;;;20.20;99.90;;;;;;5039513;28;20330;-83
2022/05/27 10:16:39;;;;;;;13.20;1.35;;;20.60;99.90;;;;;;5053397;28;20160;-81
2022/05/27 10:19:21;;;;;;;3.03;1.40;;;21.10;99.90;;;;;;5049364;28;20658;-89
2022/05/27 10:21:52;;;;;;;1.85;1.13;;;21.20;99.90;;;;;;5040562;28;20170;-89
2022/05/27 10:24:24;;;;;;;2.88;1.50;;;20.50;99.90;;;;;;5048053;28;20179;-85
2022/05/27 10:27:23;;;;;;;6.25;1.38;;;20.10;99.90;;;;;;5046968;28;20167;-80
2022/05/27 10:29:54;;;;;;;3.10;1.27;;;20.10;99.90;;;;;;5046990;28;20191;-88
2022/05/27 10:32:26;;;;;;;9.93;1.40;;;20.20;99.90;;;;;;5042027;28;20208;-85
2022/05/27 10:34:52;;;;;;;4.47;1.27;;;20.50;99.90;;;;;;5042033;28;20171;-86
2022/05/27 10:37:57;;;;;;;3.72;1.30;;;20.80;99.90;;;;;;5038051;28;20196;-77
2022/05/27 10:40:26;;;;;;;4.78;1.48;;;21.00;99.90;;;;;;5030385;28;20175;-85
2022/05/27 10:43:24;;;;;;;4.25;1.88;;;20.80;99.90;;;;;;5048194;28;20168;-85
2022/05/27 10:45:55;;;;;;;10.80;4.13;;;20.40;99.90;;;;;;5046165;28;20178;-86
2022/05/27 10:48:48;;;;;;;6.38;2.78;;;20.30;99.90;;;;;;5023241;28;20191;-87
2022/05/27 10:51:48;;;;;;;3.30;1.33;;;20.40;99.90;;;;;;5056087;28;20242;-84
2022/05/27 10:54:52;;;;;;;7.97;1.50;;;20.60;99.90;;;;;;5056074;28;20194;-83
2022/05/27 11:03:38;;;;;;;3.03;1.30;;;20.00;99.90;;;;;;5056509;28;20597;-78
2022/05/27 11:06:15;;;;;;;9.95;2.20;;;19.70;99.90;;;;;;5056143;28;20168;-87
2022/05/27 11:09:28;;;;;;;3.20;1.30;;;20.00;99.90;;;;;;5055567;28;20199;-80
2022/05/27 11:11:59;;;;;;;6.68;1.92;;;20.30;99.90;;;;;;5047476;28;20558;-81
2022/05/27 11:18:09;;;;;;;3.95;1.27;;;20.50;99.90;;;;;;5054840;28;20198;-84
2022/05/27 11:21:08;;;;;;;8.13;2.15;;;19.90;99.90;;;;;;5040134;28;20237;-79
2022/05/27 11:24:02;;;;;;;3.15;1.27;;;19.80;99.90;;;;;;5054974;28;20171;-78
2022/05/27 11:26:56;;;;;;;3.88;1.50;;;19.70;99.90;;;;;;5054187;28;20171;-80
2022/05/27 11:29:53;;;;;;;10.23;1.70;;;19.40;99.90;;;;;;5054359;28;20198;-83
2022/05/27 11:32:40;;;;;;;3.72;1.98;;;19.70;99.90;;;;;;5034469;28;20263;-77
2022/05/27 11:35:12;;;;;;;7.85;1.75;;;19.80;99.90;;;;;;5036130;28;20261;-81
2022/05/27 11:37:49;;;;;;;3.20;1.73;;;20.10;99.90;;;;;;5036070;28;20198;-84
2022/05/27 11:40:38;;;;;;;8.88;2.03;;;20.30;99.90;;;;;;5036247;28;20245;-89
2022/05/27 11:43:12;;;;;;;6.00;1.52;;;20.40;99.90;;;;;;5044733;28;20183;-78
2022/05/27 11:45:46;;;;;;;4.03;1.10;;;20.40;99.90;;;;;;5055251;28;20167;-82
2022/05/27 11:48:23;;;;;;;9.68;1.83;;;20.30;99.90;;;;;;5056733;28;20183;-86
2022/05/27 11:51:01;;;;;;;5.22;1.92;;;20.50;99.90;;;;;;5056239;28;20248;-88
2022/05/27 11:53:54;;;;;;;4.38;1.38;;;20.90;99.90;;;;;;5056705;28;20185;-80
2022/05/27 11:56:48;;;;;;;8.38;2.20;;;21.10;99.90;;;;;;5055326;28;20197;-87
2022/05/27 11:59:26;;;;;;;8.23;1.98;;;20.80;99.90;;;;;;5056908;28;20314;-77
2022/05/27 12:02:04;;;;;;;8.55;3.25;;;20.30;99.90;;;;;;5057671;28;20178;-82
2022/05/27 12:04:57;;;;;;;8.05;2.92;;;20.10;99.90;;;;;;5077906;28;20172;-90
2022/05/27 12:07:45;;;;;;;14.43;2.97;;;20.00;99.90;;;;;;5081915;28;20183;-75
2022/05/27 12:10:32;;;;;;;10.82;2.88;;;19.90;99.90;;;;;;5074342;28;20170;-75
2022/05/27 12:13:30;;;;;;;9.10;1.95;;;19.90;99.90;;;;;;5074769;28;20201;-75
2022/05/27 12:16:02;;;;;;;7.28;2.42;;;20.10;99.90;;;;;;5074331;28;20173;-82
2022/05/27 12:18:44;;;;;;;4.68;2.40;;;20.40;99.90;;;;;;5054378;28;20218;-82
2022/05/27 12:21:25;;;;;;;11.18;2.50;;;20.20;99.90;;;;;;5073855;28;20642;-84
2022/05/27 12:24:03;;;;;;;12.70;2.25;;;20.10;99.90;;;;;;5074095;28;20217;-85
2022/05/27 12:26:39;;;;;;;5.75;2.53;;;19.90;99.90;;;;;;5074532;28;20167;-88
2022/05/27 12:29:09;;;;;;;7.68;2.85;;;19.80;99.90;;;;;;5056134;28;20236;-82
2022/05/27 12:31:35;;;;;;;10.32;3.58;;;19.80;99.90;;;;;;5074122;28;20198;-87
2022/05/27 12:34:25;;;;;;;6.72;2.22;;;19.60;99.90;;;;;;5074008;28;20233;-83
2022/05/27 12:36:58;;;;;;;8.43;2.05;;;19.60;99.90;;;;;;5073769;28;20516;-79
2022/05/27 12:39:26;;;;;;;9.25;2.60;;;19.70;99.90;;;;;;5073453;28;20158;-85
2022/05/27 12:42:11;;;;;;;4.63;2.03;;;19.80;99.90;;;;;;5073815;28;20209;-85
2022/05/27 12:44:38;;;;;;;3.78;2.05;;;20.10;99.90;;;;;;5074414;28;20170;-88
2022/05/27 12:47:04;;;;;;;9.68;2.58;;;19.90;99.90;;;;;;5075244;28;20169;-80
2022/05/27 12:49:39;;;;;;;11.27;2.05;;;19.70;99.90;;;;;;5074319;28;20243;-90
2022/05/27 12:52:25;;;;;;;5.03;2.28;;;19.70;99.90;;;;;;5073629;28;20197;-87
2022/05/27 12:54:50;;;;;;;16.48;2.90;;;19.90;99.90;;;;;;5073545;28;20231;-83
2022/05/27 13:03:33;;;;;;;5.80;2.03;;;20.50;99.90;;;;;;5073096;28;20178;-84
2022/05/27 13:06:07;;;;;;;12.50;2.22;;;20.50;99.90;;;;;;5073750;28;20253;-85
2022/05/27 13:08:59;;;;;;;5.70;1.80;;;20.60;99.90;;;;;;5055029;28;20285;-80
2022/05/27 13:11:34;;;;;;;7.75;1.55;;;20.30;99.90;;;;;;5073789;28;20195;-84
2022/05/27 13:14:06;;;;;;;10.57;1.77;;;20.40;99.90;;;;;;5072944;28;20173;-89
2022/05/27 13:16:45;;;;;;;8.27;1.75;;;20.20;99.90;;;;;;5055621;28;20178;-89
2022/05/27 13:19:30;;;;;;;5.00;1.83;;;20.10;99.90;;;;;;5055015;28;20275;-78
2022/05/27 13:21:59;;;;;;;6.10;1.63;;;20.10;99.90;;;;;;5072489;28;20201;-84
2022/05/27 13:24:47;;;;;;;4.30;1.70;;;19.90;99.90;;;;;;5055681;28;20178;-87
2022/05/27 13:27:22;;;;;;;7.05;1.88;;;19.70;99.90;;;;;;5073504;28;20166;-86
2022/05/27 13:29:54;;;;;;;7.13;1.60;;;19.90;99.90;;;;;;5055201;28;20257;-85
2022/05/27 13:32:22;;;;;;;8.30;1.80;;;20.00;99.90;;;;;;5055459;28;20582;-84
2022/05/27 13:35:00;;;;;;;6.32;1.63;;;20.20;99.90;;;;;;5073844;28;20163;-86
2022/05/27 13:37:38;;;;;;;6.35;2.40;;;20.40;99.90;;;;;;5073431;28;20186;-87
2022/05/27 13:40:24;;;;;;;7.50;2.13;;;20.30;99.90;;;;;;5055845;28;20714;-90
2022/05/27 13:42:54;;;;;;;5.22;2.00;;;20.30;99.90;;;;;;5055928;28;20166;-86
2022/05/27 13:45:25;;;;;;;4.45;2.08;;;20.50;99.90;;;;;;5054801;28;20515;-81
2022/05/27 13:47:55;;;;;;;10.50;3.72;;;20.30;99.90;;;;;;5071643;28;20189;-82
2022/05/27 13:50:28;;;;;;;6.32;1.80;;;20.40;99.90;;;;;;5076136;28;20226;-88
2022/05/27 13:52:54;;;;;;;10.80;2.40;;;20.30;99.90;;;;;;5073834;28;20216;-86